sensor_id;sensor_type;location;lat;lon;timestamp;pressure;altitude;pressure_sealevel;temperature;humidity
54918;BME280;40818;50.562;7.454;2023-02-22T00:02:57;97608.78;;;5.08;100.00
54918;BME280;40818;50.562;7.454;2023-02-22T00:13:01;97592.03;;;5.00;100.00
54918;BME280;40818;50.562;7.454;2023-02-22T00:23:14;97590.69;;;4.91;100.00
54918;BME280;40818;50.562;7.454;2023-02-22T00:33:18;97586.19;;;4.96;100.00
54918;BME280;40818;50.562;7.454;2023-02-22T00:43:24;97575.63;;;4.83;100.00
54918;BME280;40818;50.562;7.454;2023-02-22T00:53:27;97569.91;;;4.76;100.00
54918;BME280;40818;50.562;7.454;2023-02-22T01:03:33;97558.16;;;4.71;100.00
54918;BME280;40818;50.562;7.454;2023-02-22T01:13:41;97550.84;;;4.61;100.00
54918;BME280;40818;50.562;7.454;2023-02-22T01:23:47;97540.63;;;4.60;100.00
54918;BME280;40818;50.562;7.454;2023-02-22T01:33:51;97537.06;;;4.43;100.00
54918;BME280;40818;50.562;7.454;2023-02-22T01:43:57;97523.09;;;4.30;100.00
54918;BME280;40818;50.562;7.454;2023-02-22T01:54:02;97519.59;;;4.31;100.00
54918;BME280;40818;50.562;7.454;2023-02-22T02:04:11;97507.16;;;4.22;100.00
54918;BME280;40818;50.562;7.454;2023-02-22T02:14:16;97498.88;;;4.15;100.00
54918;BME280;40818;50.562;7.454;2023-02-22T02:35:18;97481.88;;;3.92;100.00
54918;BME280;40818;50.562;7.454;2023-02-22T02:45:27;97473.13;;;3.96;100.00
54918;BME280;40818;50.562;7.454;2023-02-22T02:55:35;97475.72;;;3.96;100.00
54918;BME280;40818;50.562;7.454;2023-02-22T03:05:59;97473.78;;;3.81;100.00
54918;BME280;40818;50.562;7.454;2023-02-22T03:16:13;97465.78;;;3.68;100.00
54918;BME280;40818;50.562;7.454;2023-02-22T03:26:24;97473.56;;;3.66;100.00
54918;BME280;40818;50.562;7.454;2023-02-22T03:36:36;97470.53;;;3.56;100.00
54918;BME280;40818;50.562;7.454;2023-02-22T03:46:43;97461.72;;;3.41;100.00
54918;BME280;40818;50.562;7.454;2023-02-22T03:56:53;97457.91;;;3.30;100.00
54918;BME280;40818;50.562;7.454;2023-02-22T04:06:58;97456.94;;;3.32;100.00
54918;BME280;40818;50.562;7.454;2023-02-22T04:17:06;97456.06;;;3.33;100.00
54918;BME280;40818;50.562;7.454;2023-02-22T04:27:10;97465.84;;;3.46;100.00
54918;BME280;40818;50.562;7.454;2023-02-22T04:37:18;97461.75;;;3.62;100.00
54918;BME280;40818;50.562;7.454;2023-02-22T04:47:22;97442.75;;;3.66;100.00
54918;BME280;40818;50.562;7.454;2023-02-22T04:57:29;97445.38;;;3.65;100.00
54918;BME280;40818;50.562;7.454;2023-02-22T05:07:32;97445.84;;;3.73;100.00
54918;BME280;40818;50.562;7.454;2023-02-22T05:17:38;97441.56;;;3.73;100.00
54918;BME280;40818;50.562;7.454;2023-02-22T05:27:42;97429.38;;;3.79;100.00
54918;BME280;40818;50.562;7.454;2023-02-22T05:37:48;97431.28;;;3.94;100.00
54918;BME280;40818;50.562;7.454;2023-02-22T05:47:53;97422.41;;;4.01;100.00
54918;BME280;40818;50.562;7.454;2023-02-22T05:57:59;97420.19;;;4.13;100.00
54918;BME280;40818;50.562;7.454;2023-02-22T06:08:05;97417.06;;;4.06;100.00
54918;BME280;40818;50.562;7.454;2023-02-22T06:18:12;97407.63;;;4.06;100.00
54918;BME280;40818;50.562;7.454;2023-02-22T06:28:15;97405.25;;;4.02;100.00
54918;BME280;40818;50.562;7.454;2023-02-22T06:38:25;97409.91;;;3.93;100.00
54918;BME280;40818;50.562;7.454;2023-02-22T06:48:29;97406.16;;;4.01;100.00
54918;BME280;40818;50.562;7.454;2023-02-22T06:58:35;97410.31;;;4.03;100.00
54918;BME280;40818;50.562;7.454;2023-02-22T07:08:38;97420.41;;;4.27;100.00
54918;BME280;40818;50.562;7.454;2023-02-22T07:18:45;97416.47;;;4.39;100.00
54918;BME280;40818;50.562;7.454;2023-02-22T07:28:49;97418.88;;;4.61;100.00
54918;BME280;40818;50.562;7.454;2023-02-22T07:38:55;97427.69;;;4.74;100.00
54918;BME280;40818;50.562;7.454;2023-02-22T07:48:58;97427.81;;;4.71;100.00
54918;BME280;40818;50.562;7.454;2023-02-22T07:59:04;97420.41;;;5.02;100.00
54918;BME280;40818;50.562;7.454;2023-02-22T08:09:08;97410.50;;;5.46;100.00
54918;BME280;40818;50.562;7.454;2023-02-22T08:19:14;97405.81;;;5.72;100.00
54918;BME280;40818;50.562;7.454;2023-02-22T08:29:18;97407.78;;;6.18;100.00
54918;BME280;40818;50.562;7.454;2023-02-22T08:39:24;97403.13;;;6.57;100.00
54918;BME280;40818;50.562;7.454;2023-02-22T08:49:28;97391.41;;;6.67;100.00
54918;BME280;40818;50.562;7.454;2023-02-22T08:59:34;97384.16;;;7.04;100.00
54918;BME280;40818;50.562;7.454;2023-02-22T09:09:37;97375.69;;;7.02;100.00
54918;BME280;40818;50.562;7.454;2023-02-22T09:19:43;97377.69;;;7.27;100.00
54918;BME280;40818;50.562;7.454;2023-02-22T09:29:47;97358.84;;;7.70;100.00
54918;BME280;40818;50.562;7.454;2023-02-22T09:39:55;97361.50;;;7.97;100.00
54918;BME280;40818;50.562;7.454;2023-02-22T09:50:01;97363.63;;;8.19;100.00
54918;BME280;40818;50.562;7.454;2023-02-22T10:00:14;97356.94;;;8.99;100.00
54918;BME280;40818;50.562;7.454;2023-02-22T10:10:29;97361.19;;;8.87;100.00
54918;BME280;40818;50.562;7.454;2023-02-22T10:20:46;97368.38;;;9.09;100.00
54918;BME280;40818;50.562;7.454;2023-02-22T10:30:55;97350.59;;;9.17;100.00
54918;BME280;40818;50.562;7.454;2023-02-22T10:41:17;97350.81;;;9.27;100.00
54918;BME280;40818;50.562;7.454;2023-02-22T10:51:22;97358.78;;;10.01;100.00
54918;BME280;40818;50.562;7.454;2023-02-22T11:01:34;97357.19;;;10.12;98.18
54918;BME280;40818;50.562;7.454;2023-02-22T11:11:42;97355.41;;;10.38;94.91
54918;BME280;40818;50.562;7.454;2023-02-22T11:21:49;97353.94;;;10.34;97.18
54918;BME280;40818;50.562;7.454;2023-02-22T11:31:54;97334.09;;;9.96;94.76
54918;BME280;40818;50.562;7.454;2023-02-22T11:42:16;97323.56;;;9.73;92.67
54918;BME280;40818;50.562;7.454;2023-02-22T11:52:24;97299.81;;;10.16;96.25
54918;BME280;40818;50.562;7.454;2023-02-22T12:02:46;97300.25;;;10.47;95.82
54918;BME280;40818;50.562;7.454;2023-02-22T12:13:03;97287.88;;;10.75;98.49
54918;BME280;40818;50.562;7.454;2023-02-22T12:23:19;97287.91;;;10.86;94.47
54918;BME280;40818;50.562;7.454;2023-02-22T12:33:39;97269.84;;;11.66;92.17
54918;BME280;40818;50.562;7.454;2023-02-22T12:43:51;97265.31;;;12.24;85.73
54918;BME280;40818;50.562;7.454;2023-02-22T12:53:58;97270.31;;;12.05;86.36
54918;BME280;40818;50.562;7.454;2023-02-22T13:04:08;97269.78;;;12.66;79.72
54918;BME280;40818;50.562;7.454;2023-02-22T13:14:24;97260.69;;;12.60;81.22
54918;BME280;40818;50.562;7.454;2023-02-22T13:24:42;97245.16;;;12.38;78.69
54918;BME280;40818;50.562;7.454;2023-02-22T13:34:58;97254.19;;;12.34;82.14
54918;BME280;40818;50.562;7.454;2023-02-22T13:56:02;97245.97;;;11.83;84.15
54918;BME280;40818;50.562;7.454;2023-02-22T14:06:10;97245.16;;;11.94;83.20
54918;BME280;40818;50.562;7.454;2023-02-22T14:16:34;97233.69;;;11.97;83.95
54918;BME280;40818;50.562;7.454;2023-02-22T14:26:53;97232.72;;;11.86;83.84
54918;BME280;40818;50.562;7.454;2023-02-22T14:36:58;97236.28;;;11.97;84.85
54918;BME280;40818;50.562;7.454;2023-02-22T14:47:13;97233.91;;;11.93;87.46
54918;BME280;40818;50.562;7.454;2023-02-22T14:57:23;97231.28;;;11.93;86.77
54918;BME280;40818;50.562;7.454;2023-02-22T15:07:31;97228.72;;;11.82;86.90
54918;BME280;40818;50.562;7.454;2023-02-22T15:17:35;97224.47;;;11.70;87.86
54918;BME280;40818;50.562;7.454;2023-02-22T15:27:44;97229.69;;;11.47;88.99
54918;BME280;40818;50.562;7.454;2023-02-22T15:37:57;97231.56;;;11.22;91.06
54918;BME280;40818;50.562;7.454;2023-02-22T15:48:04;97234.94;;;10.89;93.35
54918;BME280;40818;50.562;7.454;2023-02-22T15:58:10;97244.56;;;10.40;97.25
54918;BME280;40818;50.562;7.454;2023-02-22T16:08:19;97243.13;;;10.36;97.77
54918;BME280;40818;50.562;7.454;2023-02-22T16:18:28;97244.84;;;10.11;100.00
54918;BME280;40818;50.562;7.454;2023-02-22T16:28:35;97245.94;;;9.96;100.00
54918;BME280;40818;50.562;7.454;2023-02-22T16:38:51;97250.13;;;9.72;100.00
54918;BME280;40818;50.562;7.454;2023-02-22T16:48:57;97250.69;;;9.65;100.00
54918;BME280;40818;50.562;7.454;2023-02-22T16:59:07;97249.06;;;9.51;100.00
54918;BME280;40818;50.562;7.454;2023-02-22T17:09:16;97257.03;;;9.61;100.00
54918;BME280;40818;50.562;7.454;2023-02-22T17:19:21;97268.00;;;9.51;100.00
54918;BME280;40818;50.562;7.454;2023-02-22T17:29:28;97282.72;;;9.51;100.00
54918;BME280;40818;50.562;7.454;2023-02-22T17:39:31;97277.31;;;9.28;100.00
54918;BME280;40818;50.562;7.454;2023-02-22T17:49:38;97282.72;;;9.25;100.00
54918;BME280;40818;50.562;7.454;2023-02-22T17:59:41;97286.56;;;9.32;100.00
54918;BME280;40818;50.562;7.454;2023-02-22T18:09:47;97292.06;;;9.28;100.00
54918;BME280;40818;50.562;7.454;2023-02-22T18:19:51;97288.13;;;9.22;100.00
54918;BME280;40818;50.562;7.454;2023-02-22T18:29:57;97291.63;;;9.21;100.00
54918;BME280;40818;50.562;7.454;2023-02-22T18:40:00;97285.94;;;9.16;100.00
54918;BME280;40818;50.562;7.454;2023-02-22T18:50:12;97286.00;;;9.01;100.00
54918;BME280;40818;50.562;7.454;2023-02-22T19:00:18;97294.00;;;8.98;100.00
54918;BME280;40818;50.562;7.454;2023-02-22T19:10:26;97295.31;;;8.78;100.00
54918;BME280;40818;50.562;7.454;2023-02-22T19:20:29;97295.31;;;8.78;100.00
54918;BME280;40818;50.562;7.454;2023-02-22T19:30:35;97289.81;;;8.70;100.00
54918;BME280;40818;50.562;7.454;2023-02-22T19:40:41;97289.69;;;8.71;100.00
54918;BME280;40818;50.562;7.454;2023-02-22T19:50:47;97296.88;;;8.53;100.00
54918;BME280;40818;50.562;7.454;2023-02-22T20:00:57;97294.31;;;8.53;100.00
54918;BME280;40818;50.562;7.454;2023-02-22T20:11:03;97295.75;;;8.58;100.00
54918;BME280;40818;50.562;7.454;2023-02-22T20:21:07;97305.00;;;8.62;100.00
54918;BME280;40818;50.562;7.454;2023-02-22T20:31:14;97312.25;;;8.69;100.00
54918;BME280;40818;50.562;7.454;2023-02-22T20:41:21;97313.59;;;8.75;100.00
54918;BME280;40818;50.562;7.454;2023-02-22T20:51:28;97318.69;;;8.77;100.00
54918;BME280;40818;50.562;7.454;2023-02-22T21:01:32;97317.66;;;8.79;100.00
54918;BME280;40818;50.562;7.454;2023-02-22T21:11:38;97322.66;;;8.82;100.00
54918;BME280;40818;50.562;7.454;2023-02-22T21:21:42;97322.56;;;8.84;100.00
54918;BME280;40818;50.562;7.454;2023-02-22T21:31:48;97324.28;;;8.83;100.00
54918;BME280;40818;50.562;7.454;2023-02-22T21:41:51;97323.47;;;8.83;100.00
54918;BME280;40818;50.562;7.454;2023-02-22T21:51:57;97328.00;;;8.79;100.00
54918;BME280;40818;50.562;7.454;2023-02-22T22:02:01;97327.41;;;8.76;100.00
54918;BME280;40818;50.562;7.454;2023-02-22T22:12:09;97334.31;;;8.75;100.00
54918;BME280;40818;50.562;7.454;2023-02-22T22:22:13;97328.63;;;8.70;100.00
54918;BME280;40818;50.562;7.454;2023-02-22T22:32:19;97327.56;;;8.73;100.00
54918;BME280;40818;50.562;7.454;2023-02-22T22:42:24;97325.81;;;8.73;100.00
54918;BME280;40818;50.562;7.454;2023-02-22T22:52:30;97326.53;;;8.75;100.00
54918;BME280;40818;50.562;7.454;2023-02-22T23:02:34;97332.66;;;8.74;100.00
54918;BME280;40818;50.562;7.454;2023-02-22T23:12:40;97331.09;;;8.71;100.00
54918;BME280;40818;50.562;7.454;2023-02-22T23:22:44;97321.50;;;8.46;100.00
54918;BME280;40818;50.562;7.454;2023-02-22T23:32:52;97319.28;;;8.26;100.00
54918;BME280;40818;50.562;7.454;2023-02-22T23:42:56;97323.06;;;8.34;100.00
54918;BME280;40818;50.562;7.454;2023-02-22T23:53:06;97310.88;;;8.36;100.00
